Flight Track Log - Related Links

Times and Time Zones

All times are in EDT time to prevent confusion due to time zone crossing. See the UAL656 flight status page for this flight to view local times or setup timezone preferences in your user account.

Time Position Orientation Groundspeed Altitude Reporting Facility
EDT Latitude Longitude Course Direction KTS MPH feet Rate Location/Type
Thu 10:44:39 PM 42.0000 -87.8333 96° East 201 231 3,200  Level Chicago TRACON
Thu 10:45:11 PM 42.0083 -87.7942 74° East 209 241 4,500 2,872 Climbing Chicago Center
Thu 10:46:13 PM 42.0094 -87.6856 89° East 271 312 7,700 3,220 Climbing Chicago Center
Thu 10:47:14 PM 42.0022 -87.5786 95° East 286 329 11,100 2,656 Climbing Chicago Center
Thu 10:48:15 PM 41.9894 -87.4553 98° East 335 386 13,100 2,098 Climbing Chicago Center
Thu 10:49:17 PM 41.9747 -87.3125 98° East 384 442 15,400 2,244 Climbing Chicago Center
Thu 10:50:00 PM 41.9334 -87.1507 96° East  Level FlightAware Approximate
Thu 10:50:18 PM 41.9561 -87.1519 99° East 405 466 17,700  Level Chicago Center
Thu 10:51:19 PM 41.9453 -86.9931 95° East 414 476 20,100 2,244 Climbing Chicago Center
Thu 10:52:21 PM 41.9500 -86.8294 88° East 435 501 22,300 1,951 Climbing Chicago Center
Thu 10:53:22 PM 41.9517 -86.6772 89° East 444 511 24,100 1,610 Climbing Chicago Center
Thu 10:54:24 PM 41.9539 -86.5047 89° East 458 527 25,600 1,512 Climbing Chicago Center
Thu 10:55:25 PM 41.9564 -86.3233 89° East 482 555 27,200 1,525 Climbing Chicago Center
Thu 10:56:26 PM 41.9422 -86.1397 96° East 490 564 28,700 1,659 Climbing Chicago Center
Thu 10:57:28 PM 41.8986 -85.9211 105° East 504 580 30,600 1,707 Climbing Chicago Center
Thu 10:58:29 PM 41.8625 -85.7403 105° East 504 580 32,200 1,306 Climbing Chicago Center
Thu 10:59:32 PM 41.8261 -85.5556 105° East 504 580 33,300 871 Climbing Chicago Center
Thu 11:00:33 PM 41.7883 -85.3625 105° East 521 600 34,000 344 Climbing Chicago Center
Thu 11:01:34 PM 41.7492 -85.1706 105° East 526 605 34,000  Level Chicago Center
Thu 11:02:35 PM 41.7089 -84.9806 106° East 521 600 34,000 162 Level Chicago Center
Thu 11:03:25 PM 41.6781 -84.8347 106° East 520 598 34,300 541 Climbing Cleveland Center
Thu 11:04:26 PM 41.6586 -84.6436 98° East 521 600 35,000 341 Climbing Cleveland Center
Thu 11:05:28 PM 41.6478 -84.4500 94° East 522 601 35,000  Level Cleveland Center
Thu 11:06:29 PM 41.6036 -84.2419 106° East 520 598 35,000  Level Cleveland Center
Thu 11:07:30 PM 41.5314 -84.0761 120° Southeast 521 600 35,000  Level Cleveland Center
Thu 11:08:31 PM 41.4586 -83.9106 120° Southeast 521 600 35,000  Level Cleveland Center
Thu 11:09:32 PM 41.3856 -83.7444 120° Southeast 521 600 35,000  Level Cleveland Center
Thu 11:10:33 PM 41.3122 -83.5800 121° Southeast 521 600 35,000  Level Cleveland Center
Thu 11:11:34 PM 41.2386 -83.4153 121° Southeast 522 601 35,000  Level Cleveland Center
Thu 11:12:35 PM 41.1658 -83.2500 120° Southeast 521 600 35,000  Level Cleveland Center
Thu 11:13:36 PM 41.0786 -83.0561 121° Southeast 521 600 35,000  Level Cleveland Center
Thu 11:14:01 PM 41.0536 -83.0006 121° Southeast 521 600 35,000  Level Cleveland Center
Thu 11:15:02 PM 40.9786 -82.8347 121° Southeast 522 601 35,000  Level Cleveland Center
Thu 11:16:03 PM 40.9033 -82.6686 121° Southeast 522 601 35,000  Level Cleveland Center
Thu 11:17:05 PM 40.8269 -82.5039 121° Southeast 523 602 35,000  Level Cleveland Center
Thu 11:18:06 PM 40.7503 -82.3394 122° Southeast 523 602 35,000  Level Cleveland Center
Thu 11:19:07 PM 40.6744 -82.1750 121° Southeast 523 602 35,000  Level Cleveland Center
Thu 11:20:03 PM 40.5981 -82.0119 122° Southeast 522 601 35,000  Level Indianapolis Center
Thu 11:21:04 PM 40.5208 -81.8472 122° Southeast 523 602 35,000  Level Indianapolis Center
Thu 11:22:05 PM 40.4447 -81.6839 121° Southeast 523 602 35,000  Level Indianapolis Center
Thu 11:23:07 PM 40.3683 -81.5225 122° Southeast 523 602 35,000  Level Indianapolis Center
Thu 11:24:13 PM 40.2972 -81.3494 118° Southeast 523 602 35,000  Level Cleveland Center
Thu 11:25:14 PM 40.2128 -81.1514 119° Southeast 522 601 35,000  Level Cleveland Center
Thu 11:26:15 PM 40.1411 -80.9883 120° Southeast 522 601 35,000  Level Cleveland Center
Thu 11:27:16 PM 40.0708 -80.8267 120° Southeast 521 600 35,000  Level Cleveland Center
Thu 11:28:18 PM 39.9997 -80.6633 120° Southeast 520 598 35,000  Level Cleveland Center
Thu 11:29:19 PM 39.9292 -80.5022 120° Southeast 520 598 35,000  Level Cleveland Center
Thu 11:30:20 PM 39.8581 -80.3403 120° Southeast 519 597 35,000  Level Cleveland Center
Thu 11:31:21 PM 39.7875 -80.1806 120° Southeast 517 595 35,000 -738 Level Cleveland Center
Thu 11:32:22 PM 39.7169 -80.0200 120° Southeast 517 595 33,500 -2,459 Descending Cleveland Center
Thu 11:33:23 PM 39.6314 -79.8311 120° Southeast 511 588 30,000 -3,122 Descending Cleveland Center
Thu 11:34:25 PM 39.5628 -79.6781 120° Southeast 497 572 27,100 -1,463 Descending Cleveland Center
Thu 11:35:26 PM 39.4986 -79.5319 120° Southeast 479 551 27,000 -885 Descending Cleveland Center
Thu 11:36:27 PM 39.4633 -79.3617 105° East 492 566 25,300 -1,574 Descending Cleveland Center
Thu 11:37:28 PM 39.4353 -79.1917 102° East 488 562 23,800 -1,672 Descending Cleveland Center
Thu 11:38:29 PM 39.4058 -79.0283 103° East 474 545 21,900 -2,410 Descending Cleveland Center
Thu 11:39:30 PM 39.3739 -78.8469 103° East 459 528 18,900 -2,656 Descending Cleveland Center
Thu 11:40:31 PM 39.3464 -78.6914 103° East 450 518 16,500 -2,115 Descending Cleveland Center
Thu 11:41:32 PM 39.3186 -78.5428 104° East 430 495 14,600 -1,967 Descending Cleveland Center
Thu 11:42:33 PM 39.2942 -78.4019 103° East 407 468 12,500 -1,672 Descending Cleveland Center
Thu 11:43:34 PM 39.2419 -78.2822 119° Southeast 369 425 11,200 -1,000 Descending Washington Center
Thu 11:44:33 PM 39.1897 -78.1867 125° Southeast 353 406 10,500 -900 Descending Washington Center
Thu 11:45:34 PM 39.1417 -78.0939 124° Southeast 324 373 9,400 -689 Descending Washington Center
Thu 11:46:35 PM 39.0956 -78.0067 124° Southeast 306 352 9,100 -864 Descending Washington Center
Thu 11:47:32 PM 39.0494 -77.9197 124° Southeast 301 346 7,700 -1,059 Descending Washington Center
Thu 11:48:34 PM 39.0092 -77.8408 123° Southeast 290 334 7,000 -645 Descending Washington Center
Thu 11:49:33 PM 38.9631 -77.7406 121° Southeast 290 334 6,400 -403 Descending Washington Center
Thu 11:51:03 PM 38.9333 -77.6167 107° East 250 288 6,000 -240 Descending Potomac TRACON
Thu 11:52:03 PM 38.8667 -77.5833 159° South 240 276 5,800 -450 Descending Potomac TRACON
Thu 11:53:03 PM 38.8000 -77.5833 180° South 205 236 5,100 -1,000 Descending Potomac TRACON
Thu 11:53:57 PM 38.7833 -77.5333 113° Southeast 208 239 3,900 -1,105 Descending Potomac TRACON
Thu 11:54:57 PM 38.8000 -77.4833 67° East 186 214 3,000 -850 Descending Potomac TRACON
Thu 11:55:57 PM 38.8500 -77.4667 15° North 160 184 2,200 -800 Descending Potomac TRACON
Thu 11:56:57 PM 38.8833 -77.4667 360° North 138 159 1,400 -750 Descending Potomac TRACON
Thu 11:57:57 PM 38.9167 -77.4667 360° North 134 154 700 -700 Descending Potomac TRACON

Login

Don't have an account? Register now (free) for customized features, flight alerts, and more!